sensor_id;sensor_type;location;lat;lon;timestamp;P1;durP1;ratioP1;P2;durP2;ratioP2
2720;SDS011;1368;49.484;11.112;2024-03-06T00:00:34;42.87;;;25.07;;
2720;SDS011;1368;49.484;11.112;2024-03-06T00:03:00;36.17;;;24.10;;
2720;SDS011;1368;49.484;11.112;2024-03-06T00:05:25;36.37;;;24.43;;
2720;SDS011;1368;49.484;11.112;2024-03-06T00:07:51;37.10;;;24.80;;
2720;SDS011;1368;49.484;11.112;2024-03-06T00:10:16;40.83;;;23.23;;
2720;SDS011;1368;49.484;11.112;2024-03-06T00:12:42;43.90;;;24.23;;
2720;SDS011;1368;49.484;11.112;2024-03-06T00:15:08;42.00;;;25.97;;
2720;SDS011;1368;49.484;11.112;2024-03-06T00:17:33;33.67;;;22.50;;
2720;SDS011;1368;49.484;11.112;2024-03-06T00:19:59;39.87;;;26.23;;
2720;SDS011;1368;49.484;11.112;2024-03-06T00:22:24;37.70;;;24.50;;
2720;SDS011;1368;49.484;11.112;2024-03-06T00:24:51;36.60;;;24.90;;
2720;SDS011;1368;49.484;11.112;2024-03-06T00:27:16;38.80;;;24.80;;
2720;SDS011;1368;49.484;11.112;2024-03-06T00:29:42;39.77;;;23.40;;
2720;SDS011;1368;49.484;11.112;2024-03-06T00:32:08;39.80;;;25.30;;
2720;SDS011;1368;49.484;11.112;2024-03-06T00:34:33;38.93;;;24.77;;
2720;SDS011;1368;49.484;11.112;2024-03-06T00:36:59;38.17;;;25.07;;
2720;SDS011;1368;49.484;11.112;2024-03-06T00:39:24;35.50;;;24.60;;
2720;SDS011;1368;49.484;11.112;2024-03-06T00:41:50;33.30;;;24.17;;
2720;SDS011;1368;49.484;11.112;2024-03-06T00:44:15;39.80;;;24.60;;
2720;SDS011;1368;49.484;11.112;2024-03-06T00:46:42;36.50;;;24.70;;
2720;SDS011;1368;49.484;11.112;2024-03-06T00:49:08;42.67;;;26.30;;
2720;SDS011;1368;49.484;11.112;2024-03-06T00:51:33;37.30;;;24.07;;
2720;SDS011;1368;49.484;11.112;2024-03-06T00:54:02;42.40;;;26.00;;
2720;SDS011;1368;49.484;11.112;2024-03-06T00:56:27;43.50;;;28.17;;
2720;SDS011;1368;49.484;11.112;2024-03-06T00:58:53;40.77;;;27.80;;
2720;SDS011;1368;49.484;11.112;2024-03-06T01:01:18;45.57;;;29.00;;
2720;SDS011;1368;49.484;11.112;2024-03-06T01:03:44;45.80;;;28.50;;
2720;SDS011;1368;49.484;11.112;2024-03-06T01:06:09;41.97;;;25.90;;
2720;SDS011;1368;49.484;11.112;2024-03-06T01:08:35;47.00;;;28.10;;
2720;SDS011;1368;49.484;11.112;2024-03-06T01:11:01;40.10;;;26.60;;
2720;SDS011;1368;49.484;11.112;2024-03-06T01:13:28;44.17;;;27.57;;
2720;SDS011;1368;49.484;11.112;2024-03-06T01:15:54;48.03;;;27.87;;
2720;SDS011;1368;49.484;11.112;2024-03-06T01:18:20;43.37;;;27.43;;
2720;SDS011;1368;49.484;11.112;2024-03-06T01:20:45;41.20;;;25.67;;
2720;SDS011;1368;49.484;11.112;2024-03-06T01:23:11;49.30;;;28.30;;
2720;SDS011;1368;49.484;11.112;2024-03-06T01:25:36;39.87;;;25.10;;
2720;SDS011;1368;49.484;11.112;2024-03-06T01:28:02;43.50;;;26.67;;
2720;SDS011;1368;49.484;11.112;2024-03-06T01:30:28;41.60;;;27.53;;
2720;SDS011;1368;49.484;11.112;2024-03-06T01:32:53;41.97;;;27.60;;
2720;SDS011;1368;49.484;11.112;2024-03-06T01:35:19;45.50;;;27.43;;
2720;SDS011;1368;49.484;11.112;2024-03-06T01:37:44;42.57;;;27.00;;
2720;SDS011;1368;49.484;11.112;2024-03-06T01:40:10;46.83;;;28.10;;
2720;SDS011;1368;49.484;11.112;2024-03-06T01:42:37;42.57;;;27.60;;
2720;SDS011;1368;49.484;11.112;2024-03-06T01:45:03;43.03;;;29.57;;
2720;SDS011;1368;49.484;11.112;2024-03-06T01:47:29;48.83;;;28.87;;
2720;SDS011;1368;49.484;11.112;2024-03-06T01:49:55;46.83;;;27.30;;
2720;SDS011;1368;49.484;11.112;2024-03-06T01:52:21;50.10;;;28.20;;
2720;SDS011;1368;49.484;11.112;2024-03-06T01:54:47;39.87;;;26.53;;
2720;SDS011;1368;49.484;11.112;2024-03-06T01:57:14;47.60;;;29.40;;
2720;SDS011;1368;49.484;11.112;2024-03-06T01:59:42;49.27;;;29.90;;
2720;SDS011;1368;49.484;11.112;2024-03-06T02:02:08;43.40;;;26.77;;
2720;SDS011;1368;49.484;11.112;2024-03-06T02:04:36;49.97;;;27.13;;
2720;SDS011;1368;49.484;11.112;2024-03-06T02:07:02;50.50;;;29.07;;
2720;SDS011;1368;49.484;11.112;2024-03-06T02:09:28;48.93;;;28.90;;
2720;SDS011;1368;49.484;11.112;2024-03-06T02:11:54;50.67;;;29.97;;
2720;SDS011;1368;49.484;11.112;2024-03-06T02:14:20;47.77;;;29.47;;
2720;SDS011;1368;49.484;11.112;2024-03-06T02:16:45;43.47;;;27.67;;
2720;SDS011;1368;49.484;11.112;2024-03-06T02:19:11;47.20;;;29.07;;
2720;SDS011;1368;49.484;11.112;2024-03-06T02:21:36;46.70;;;28.17;;
2720;SDS011;1368;49.484;11.112;2024-03-06T02:24:02;43.60;;;27.97;;
2720;SDS011;1368;49.484;11.112;2024-03-06T02:26:28;44.73;;;27.80;;
2720;SDS011;1368;49.484;11.112;2024-03-06T02:28:54;51.07;;;30.37;;
2720;SDS011;1368;49.484;11.112;2024-03-06T02:31:21;49.33;;;28.77;;
2720;SDS011;1368;49.484;11.112;2024-03-06T02:33:48;47.13;;;29.13;;
2720;SDS011;1368;49.484;11.112;2024-03-06T02:36:14;49.40;;;30.27;;
2720;SDS011;1368;49.484;11.112;2024-03-06T02:38:41;46.23;;;29.03;;
2720;SDS011;1368;49.484;11.112;2024-03-06T02:41:08;53.23;;;31.90;;
2720;SDS011;1368;49.484;11.112;2024-03-06T02:43:34;53.37;;;33.13;;
2720;SDS011;1368;49.484;11.112;2024-03-06T02:46:00;55.37;;;31.20;;
2720;SDS011;1368;49.484;11.112;2024-03-06T02:48:26;59.33;;;32.27;;
2720;SDS011;1368;49.484;11.112;2024-03-06T02:50:51;50.30;;;31.67;;
2720;SDS011;1368;49.484;11.112;2024-03-06T02:53:17;54.40;;;31.97;;
2720;SDS011;1368;49.484;11.112;2024-03-06T02:55:43;60.40;;;33.60;;
2720;SDS011;1368;49.484;11.112;2024-03-06T02:58:08;58.10;;;32.17;;
2720;SDS011;1368;49.484;11.112;2024-03-06T03:00:34;61.60;;;34.87;;
2720;SDS011;1368;49.484;11.112;2024-03-06T03:02:59;63.90;;;36.97;;
2720;SDS011;1368;49.484;11.112;2024-03-06T03:05:25;55.53;;;34.70;;
2720;SDS011;1368;49.484;11.112;2024-03-06T03:07:50;66.50;;;37.57;;
2720;SDS011;1368;49.484;11.112;2024-03-06T03:10:16;67.10;;;37.20;;
2720;SDS011;1368;49.484;11.112;2024-03-06T03:12:42;67.67;;;35.87;;
2720;SDS011;1368;49.484;11.112;2024-03-06T03:15:08;66.97;;;37.03;;
2720;SDS011;1368;49.484;11.112;2024-03-06T03:17:34;68.33;;;35.10;;
2720;SDS011;1368;49.484;11.112;2024-03-06T03:20:00;78.63;;;39.30;;
2720;SDS011;1368;49.484;11.112;2024-03-06T03:22:34;69.73;;;37.77;;
2720;SDS011;1368;49.484;11.112;2024-03-06T03:25:07;68.67;;;37.93;;
2720;SDS011;1368;49.484;11.112;2024-03-06T03:27:34;75.03;;;39.63;;
2720;SDS011;1368;49.484;11.112;2024-03-06T03:30:02;71.53;;;36.17;;
2720;SDS011;1368;49.484;11.112;2024-03-06T03:32:28;74.10;;;39.43;;
2720;SDS011;1368;49.484;11.112;2024-03-06T03:34:53;80.37;;;40.40;;
2720;SDS011;1368;49.484;11.112;2024-03-06T03:37:19;83.77;;;40.93;;
2720;SDS011;1368;49.484;11.112;2024-03-06T03:39:44;75.00;;;37.00;;
2720;SDS011;1368;49.484;11.112;2024-03-06T03:42:11;77.10;;;36.80;;
2720;SDS011;1368;49.484;11.112;2024-03-06T03:44:36;79.87;;;38.57;;
2720;SDS011;1368;49.484;11.112;2024-03-06T03:47:02;75.90;;;37.73;;
2720;SDS011;1368;49.484;11.112;2024-03-06T03:49:28;73.37;;;39.90;;
2720;SDS011;1368;49.484;11.112;2024-03-06T03:51:53;83.30;;;42.90;;
2720;SDS011;1368;49.484;11.112;2024-03-06T03:54:19;77.87;;;40.70;;
2720;SDS011;1368;49.484;11.112;2024-03-06T03:56:44;80.60;;;41.73;;
2720;SDS011;1368;49.484;11.112;2024-03-06T03:59:10;66.20;;;38.97;;
2720;SDS011;1368;49.484;11.112;2024-03-06T04:01:35;79.53;;;40.60;;
2720;SDS011;1368;49.484;11.112;2024-03-06T04:04:01;74.57;;;39.40;;
2720;SDS011;1368;49.484;11.112;2024-03-06T04:06:27;74.80;;;40.67;;
2720;SDS011;1368;49.484;11.112;2024-03-06T04:08:52;78.20;;;41.63;;
2720;SDS011;1368;49.484;11.112;2024-03-06T04:13:59;73.63;;;41.10;;
2720;SDS011;1368;49.484;11.112;2024-03-06T04:16:25;83.27;;;42.47;;
2720;SDS011;1368;49.484;11.112;2024-03-06T04:18:51;74.10;;;41.80;;
2720;SDS011;1368;49.484;11.112;2024-03-06T04:21:16;75.67;;;41.27;;
2720;SDS011;1368;49.484;11.112;2024-03-06T04:23:43;76.97;;;41.70;;
2720;SDS011;1368;49.484;11.112;2024-03-06T04:26:09;94.00;;;43.77;;
2720;SDS011;1368;49.484;11.112;2024-03-06T04:28:34;80.67;;;42.37;;
2720;SDS011;1368;49.484;11.112;2024-03-06T04:31:00;71.47;;;39.30;;
2720;SDS011;1368;49.484;11.112;2024-03-06T04:33:25;81.17;;;39.77;;
2720;SDS011;1368;49.484;11.112;2024-03-06T04:35:51;81.47;;;42.63;;
2720;SDS011;1368;49.484;11.112;2024-03-06T04:38:17;75.80;;;40.63;;
2720;SDS011;1368;49.484;11.112;2024-03-06T04:40:42;68.53;;;39.07;;
2720;SDS011;1368;49.484;11.112;2024-03-06T04:43:08;85.47;;;44.80;;
2720;SDS011;1368;49.484;11.112;2024-03-06T04:45:33;84.33;;;43.93;;
2720;SDS011;1368;49.484;11.112;2024-03-06T04:47:59;87.17;;;42.77;;
2720;SDS011;1368;49.484;11.112;2024-03-06T04:50:25;93.17;;;46.30;;
2720;SDS011;1368;49.484;11.112;2024-03-06T04:52:52;89.10;;;43.80;;
2720;SDS011;1368;49.484;11.112;2024-03-06T04:55:18;91.50;;;42.83;;
2720;SDS011;1368;49.484;11.112;2024-03-06T04:57:47;89.40;;;46.13;;
2720;SDS011;1368;49.484;11.112;2024-03-06T05:00:13;99.60;;;45.90;;
2720;SDS011;1368;49.484;11.112;2024-03-06T05:02:39;81.93;;;42.80;;
2720;SDS011;1368;49.484;11.112;2024-03-06T05:05:07;93.37;;;43.70;;
2720;SDS011;1368;49.484;11.112;2024-03-06T05:07:33;98.80;;;48.00;;
2720;SDS011;1368;49.484;11.112;2024-03-06T05:09:59;103.33;;;49.00;;
2720;SDS011;1368;49.484;11.112;2024-03-06T05:12:25;106.30;;;47.50;;
2720;SDS011;1368;49.484;11.112;2024-03-06T05:14:51;92.40;;;44.87;;
2720;SDS011;1368;49.484;11.112;2024-03-06T05:17:17;99.50;;;46.50;;
2720;SDS011;1368;49.484;11.112;2024-03-06T05:19:43;105.73;;;48.57;;
2720;SDS011;1368;49.484;11.112;2024-03-06T05:22:09;101.40;;;48.93;;
2720;SDS011;1368;49.484;11.112;2024-03-06T05:24:36;116.93;;;50.53;;
2720;SDS011;1368;49.484;11.112;2024-03-06T05:27:02;99.53;;;48.57;;
2720;SDS011;1368;49.484;11.112;2024-03-06T05:29:27;100.33;;;50.27;;
2720;SDS011;1368;49.484;11.112;2024-03-06T05:31:53;110.17;;;52.40;;
2720;SDS011;1368;49.484;11.112;2024-03-06T05:34:20;124.50;;;52.93;;
2720;SDS011;1368;49.484;11.112;2024-03-06T05:36:47;108.97;;;51.43;;
2720;SDS011;1368;49.484;11.112;2024-03-06T05:39:13;110.33;;;52.80;;
2720;SDS011;1368;49.484;11.112;2024-03-06T05:41:39;111.50;;;50.47;;
2720;SDS011;1368;49.484;11.112;2024-03-06T05:44:05;116.73;;;53.33;;
2720;SDS011;1368;49.484;11.112;2024-03-06T05:46:30;119.83;;;53.90;;
2720;SDS011;1368;49.484;11.112;2024-03-06T05:48:56;122.27;;;54.33;;
2720;SDS011;1368;49.484;11.112;2024-03-06T05:51:21;127.03;;;55.00;;
2720;SDS011;1368;49.484;11.112;2024-03-06T05:53:47;142.40;;;57.17;;
2720;SDS011;1368;49.484;11.112;2024-03-06T05:56:12;121.47;;;55.80;;
2720;SDS011;1368;49.484;11.112;2024-03-06T05:58:38;108.77;;;53.77;;
2720;SDS011;1368;49.484;11.112;2024-03-06T06:01:04;118.43;;;53.27;;
2720;SDS011;1368;49.484;11.112;2024-03-06T06:03:29;101.50;;;49.43;;
2720;SDS011;1368;49.484;11.112;2024-03-06T06:05:56;108.53;;;51.77;;
2720;SDS011;1368;49.484;11.112;2024-03-06T06:08:22;127.57;;;54.07;;
2720;SDS011;1368;49.484;11.112;2024-03-06T06:10:47;104.90;;;48.60;;
2720;SDS011;1368;49.484;11.112;2024-03-06T06:13:13;107.37;;;49.10;;
2720;SDS011;1368;49.484;11.112;2024-03-06T06:15:39;128.63;;;53.40;;
2720;SDS011;1368;49.484;11.112;2024-03-06T06:18:05;117.43;;;55.23;;
2720;SDS011;1368;49.484;11.112;2024-03-06T06:20:31;120.60;;;53.17;;
2720;SDS011;1368;49.484;11.112;2024-03-06T06:22:56;114.80;;;55.53;;
2720;SDS011;1368;49.484;11.112;2024-03-06T06:25:22;124.70;;;54.90;;
2720;SDS011;1368;49.484;11.112;2024-03-06T06:27:48;118.27;;;53.13;;
2720;SDS011;1368;49.484;11.112;2024-03-06T06:30:14;108.73;;;50.27;;
2720;SDS011;1368;49.484;11.112;2024-03-06T06:32:43;97.60;;;47.53;;
2720;SDS011;1368;49.484;11.112;2024-03-06T06:35:12;102.70;;;46.93;;
2720;SDS011;1368;49.484;11.112;2024-03-06T06:37:40;96.00;;;47.93;;
2720;SDS011;1368;49.484;11.112;2024-03-06T06:40:06;97.67;;;45.33;;
2720;SDS011;1368;49.484;11.112;2024-03-06T06:42:33;88.17;;;44.70;;
2720;SDS011;1368;49.484;11.112;2024-03-06T06:44:59;79.87;;;44.30;;
2720;SDS011;1368;49.484;11.112;2024-03-06T06:47:25;80.40;;;42.53;;
2720;SDS011;1368;49.484;11.112;2024-03-06T06:49:51;85.90;;;45.10;;
2720;SDS011;1368;49.484;11.112;2024-03-06T06:52:17;82.37;;;41.90;;
2720;SDS011;1368;49.484;11.112;2024-03-06T06:54:43;83.93;;;43.97;;
2720;SDS011;1368;49.484;11.112;2024-03-06T06:57:08;81.50;;;41.97;;
2720;SDS011;1368;49.484;11.112;2024-03-06T06:59:34;70.70;;;39.53;;
2720;SDS011;1368;49.484;11.112;2024-03-06T07:02:00;72.43;;;41.07;;
2720;SDS011;1368;49.484;11.112;2024-03-06T07:04:26;80.77;;;43.77;;
2720;SDS011;1368;49.484;11.112;2024-03-06T07:06:51;82.00;;;43.13;;
2720;SDS011;1368;49.484;11.112;2024-03-06T07:09:17;78.50;;;40.40;;
2720;SDS011;1368;49.484;11.112;2024-03-06T07:11:46;75.07;;;42.90;;
2720;SDS011;1368;49.484;11.112;2024-03-06T07:14:12;67.77;;;36.90;;
2720;SDS011;1368;49.484;11.112;2024-03-06T07:16:44;75.87;;;39.67;;
2720;SDS011;1368;49.484;11.112;2024-03-06T07:19:10;67.20;;;39.10;;
2720;SDS011;1368;49.484;11.112;2024-03-06T07:21:36;81.00;;;43.17;;
2720;SDS011;1368;49.484;11.112;2024-03-06T07:24:02;70.90;;;39.50;;
2720;SDS011;1368;49.484;11.112;2024-03-06T07:26:29;71.83;;;41.33;;
2720;SDS011;1368;49.484;11.112;2024-03-06T07:28:55;72.20;;;38.47;;
2720;SDS011;1368;49.484;11.112;2024-03-06T07:31:21;71.67;;;38.60;;
2720;SDS011;1368;49.484;11.112;2024-03-06T07:33:46;70.23;;;38.33;;
2720;SDS011;1368;49.484;11.112;2024-03-06T07:36:12;58.00;;;34.23;;
2720;SDS011;1368;49.484;11.112;2024-03-06T07:38:37;61.27;;;35.33;;
2720;SDS011;1368;49.484;11.112;2024-03-06T07:41:03;57.93;;;35.40;;
2720;SDS011;1368;49.484;11.112;2024-03-06T07:43:29;54.17;;;32.97;;
2720;SDS011;1368;49.484;11.112;2024-03-06T07:45:54;55.23;;;32.63;;
2720;SDS011;1368;49.484;11.112;2024-03-06T07:48:20;51.10;;;28.83;;
2720;SDS011;1368;49.484;11.112;2024-03-06T07:50:46;50.70;;;29.87;;
2720;SDS011;1368;49.484;11.112;2024-03-06T07:53:11;51.20;;;30.30;;
2720;SDS011;1368;49.484;11.112;2024-03-06T07:55:37;56.73;;;29.70;;
2720;SDS011;1368;49.484;11.112;2024-03-06T07:58:03;44.40;;;26.10;;
2720;SDS011;1368;49.484;11.112;2024-03-06T08:00:29;45.43;;;27.50;;
2720;SDS011;1368;49.484;11.112;2024-03-06T08:02:56;49.00;;;27.00;;
2720;SDS011;1368;49.484;11.112;2024-03-06T08:05:21;42.00;;;26.77;;
2720;SDS011;1368;49.484;11.112;2024-03-06T08:07:47;45.13;;;26.03;;
2720;SDS011;1368;49.484;11.112;2024-03-06T08:10:13;43.50;;;26.53;;
2720;SDS011;1368;49.484;11.112;2024-03-06T08:12:40;43.50;;;25.87;;
2720;SDS011;1368;49.484;11.112;2024-03-06T08:15:06;42.60;;;23.07;;
2720;SDS011;1368;49.484;11.112;2024-03-06T08:17:34;43.73;;;25.70;;
2720;SDS011;1368;49.484;11.112;2024-03-06T08:20:01;35.93;;;22.60;;
2720;SDS011;1368;49.484;11.112;2024-03-06T08:22:28;37.17;;;23.07;;
2720;SDS011;1368;49.484;11.112;2024-03-06T08:24:53;39.53;;;23.60;;
2720;SDS011;1368;49.484;11.112;2024-03-06T08:27:19;39.97;;;23.07;;
2720;SDS011;1368;49.484;11.112;2024-03-06T08:29:45;40.20;;;23.13;;
2720;SDS011;1368;49.484;11.112;2024-03-06T08:32:11;40.77;;;24.33;;
2720;SDS011;1368;49.484;11.112;2024-03-06T08:34:36;37.87;;;23.00;;
2720;SDS011;1368;49.484;11.112;2024-03-06T08:37:02;37.17;;;21.60;;
2720;SDS011;1368;49.484;11.112;2024-03-06T08:39:27;41.13;;;22.30;;
2720;SDS011;1368;49.484;11.112;2024-03-06T08:41:54;40.80;;;24.30;;
2720;SDS011;1368;49.484;11.112;2024-03-06T08:44:19;38.90;;;23.30;;
2720;SDS011;1368;49.484;11.112;2024-03-06T08:46:45;39.50;;;22.90;;
2720;SDS011;1368;49.484;11.112;2024-03-06T08:49:10;40.90;;;24.83;;
2720;SDS011;1368;49.484;11.112;2024-03-06T08:51:36;36.07;;;23.07;;
2720;SDS011;1368;49.484;11.112;2024-03-06T08:54:01;39.30;;;21.47;;
2720;SDS011;1368;49.484;11.112;2024-03-06T08:56:27;40.17;;;22.83;;
2720;SDS011;1368;49.484;11.112;2024-03-06T08:58:53;36.30;;;23.10;;
2720;SDS011;1368;49.484;11.112;2024-03-06T09:01:18;36.23;;;20.33;;
2720;SDS011;1368;49.484;11.112;2024-03-06T09:03:44;37.80;;;22.70;;
2720;SDS011;1368;49.484;11.112;2024-03-06T09:06:10;40.60;;;22.90;;
2720;SDS011;1368;49.484;11.112;2024-03-06T09:08:35;39.23;;;23.47;;
2720;SDS011;1368;49.484;11.112;2024-03-06T09:11:01;34.93;;;22.57;;
2720;SDS011;1368;49.484;11.112;2024-03-06T09:13:27;36.40;;;21.83;;
2720;SDS011;1368;49.484;11.112;2024-03-06T09:15:53;38.83;;;23.00;;
2720;SDS011;1368;49.484;11.112;2024-03-06T09:18:18;43.20;;;22.10;;
2720;SDS011;1368;49.484;11.112;2024-03-06T09:20:44;36.50;;;22.20;;
2720;SDS011;1368;49.484;11.112;2024-03-06T09:23:10;38.07;;;23.10;;
2720;SDS011;1368;49.484;11.112;2024-03-06T09:25:35;34.87;;;21.23;;
2720;SDS011;1368;49.484;11.112;2024-03-06T09:28:01;38.60;;;22.40;;
2720;SDS011;1368;49.484;11.112;2024-03-06T09:30:29;39.87;;;22.77;;
2720;SDS011;1368;49.484;11.112;2024-03-06T09:32:55;35.77;;;21.87;;
2720;SDS011;1368;49.484;11.112;2024-03-06T09:35:20;42.63;;;24.07;;
2720;SDS011;1368;49.484;11.112;2024-03-06T09:37:46;37.43;;;22.10;;
2720;SDS011;1368;49.484;11.112;2024-03-06T09:40:16;41.37;;;22.20;;
2720;SDS011;1368;49.484;11.112;2024-03-06T09:42:45;38.90;;;22.80;;
2720;SDS011;1368;49.484;11.112;2024-03-06T09:45:11;38.57;;;22.50;;
2720;SDS011;1368;49.484;11.112;2024-03-06T09:47:36;37.07;;;21.27;;
2720;SDS011;1368;49.484;11.112;2024-03-06T09:50:05;39.07;;;21.07;;
2720;SDS011;1368;49.484;11.112;2024-03-06T09:52:34;33.80;;;21.63;;
2720;SDS011;1368;49.484;11.112;2024-03-06T09:55:01;36.67;;;22.37;;
2720;SDS011;1368;49.484;11.112;2024-03-06T09:57:28;38.77;;;22.13;;
2720;SDS011;1368;49.484;11.112;2024-03-06T09:59:55;33.43;;;22.70;;
2720;SDS011;1368;49.484;11.112;2024-03-06T10:02:39;33.37;;;21.30;;
2720;SDS011;1368;49.484;11.112;2024-03-06T10:05:20;36.63;;;22.03;;
2720;SDS011;1368;49.484;11.112;2024-03-06T10:07:47;38.27;;;23.20;;
2720;SDS011;1368;49.484;11.112;2024-03-06T10:10:14;35.23;;;21.83;;
2720;SDS011;1368;49.484;11.112;2024-03-06T10:12:40;38.23;;;22.40;;
2720;SDS011;1368;49.484;11.112;2024-03-06T10:15:06;46.13;;;22.87;;
2720;SDS011;1368;49.484;11.112;2024-03-06T10:17:35;40.43;;;22.70;;
2720;SDS011;1368;49.484;11.112;2024-03-06T10:20:00;34.07;;;21.23;;
2720;SDS011;1368;49.484;11.112;2024-03-06T10:22:30;35.90;;;21.87;;
2720;SDS011;1368;49.484;11.112;2024-03-06T10:24:56;39.33;;;24.00;;
2720;SDS011;1368;49.484;11.112;2024-03-06T10:27:22;37.83;;;21.97;;
2720;SDS011;1368;49.484;11.112;2024-03-06T10:30:00;35.83;;;20.97;;
2720;SDS011;1368;49.484;11.112;2024-03-06T10:32:26;35.00;;;21.37;;
2720;SDS011;1368;49.484;11.112;2024-03-06T10:34:52;37.30;;;21.40;;
2720;SDS011;1368;49.484;11.112;2024-03-06T10:37:17;38.67;;;23.10;;
2720;SDS011;1368;49.484;11.112;2024-03-06T10:39:46;42.27;;;24.93;;
2720;SDS011;1368;49.484;11.112;2024-03-06T10:42:16;36.53;;;21.17;;
2720;SDS011;1368;49.484;11.112;2024-03-06T10:44:44;41.20;;;22.60;;
2720;SDS011;1368;49.484;11.112;2024-03-06T10:47:16;43.40;;;24.57;;
2720;SDS011;1368;49.484;11.112;2024-03-06T10:49:44;39.07;;;22.10;;
2720;SDS011;1368;49.484;11.112;2024-03-06T10:52:11;34.67;;;21.27;;
2720;SDS011;1368;49.484;11.112;2024-03-06T10:54:37;34.37;;;21.30;;
2720;SDS011;1368;49.484;11.112;2024-03-06T10:57:07;30.23;;;18.67;;
2720;SDS011;1368;49.484;11.112;2024-03-06T10:59:35;32.43;;;19.13;;
2720;SDS011;1368;49.484;11.112;2024-03-06T11:02:01;32.03;;;19.73;;
2720;SDS011;1368;49.484;11.112;2024-03-06T11:04:27;30.33;;;18.33;;
2720;SDS011;1368;49.484;11.112;2024-03-06T11:06:55;37.70;;;21.40;;
2720;SDS011;1368;49.484;11.112;2024-03-06T11:09:21;28.27;;;17.10;;
2720;SDS011;1368;49.484;11.112;2024-03-06T11:11:50;35.73;;;20.30;;
2720;SDS011;1368;49.484;11.112;2024-03-06T11:14:17;34.93;;;18.80;;
2720;SDS011;1368;49.484;11.112;2024-03-06T11:16:57;32.43;;;18.43;;
2720;SDS011;1368;49.484;11.112;2024-03-06T11:19:24;32.80;;;19.60;;
2720;SDS011;1368;49.484;11.112;2024-03-06T11:21:50;26.53;;;16.83;;
2720;SDS011;1368;49.484;11.112;2024-03-06T11:24:22;32.60;;;18.40;;
2720;SDS011;1368;49.484;11.112;2024-03-06T11:29:23;28.80;;;15.03;;
2720;SDS011;1368;49.484;11.112;2024-03-06T11:31:57;31.70;;;18.33;;
2720;SDS011;1368;49.484;11.112;2024-03-06T11:34:27;29.60;;;17.60;;
2720;SDS011;1368;49.484;11.112;2024-03-06T11:36:58;33.40;;;19.37;;
2720;SDS011;1368;49.484;11.112;2024-03-06T11:39:27;28.00;;;17.00;;
2720;SDS011;1368;49.484;11.112;2024-03-06T11:41:54;26.17;;;17.10;;
2720;SDS011;1368;49.484;11.112;2024-03-06T11:44:21;26.50;;;16.40;;
2720;SDS011;1368;49.484;11.112;2024-03-06T11:46:48;29.90;;;18.93;;
2720;SDS011;1368;49.484;11.112;2024-03-06T11:49:15;31.50;;;18.77;;
2720;SDS011;1368;49.484;11.112;2024-03-06T11:51:50;32.53;;;18.67;;
2720;SDS011;1368;49.484;11.112;2024-03-06T11:54:16;27.30;;;17.27;;
2720;SDS011;1368;49.484;11.112;2024-03-06T11:56:48;31.53;;;17.40;;
2720;SDS011;1368;49.484;11.112;2024-03-06T11:59:16;39.37;;;20.67;;
2720;SDS011;1368;49.484;11.112;2024-03-06T12:01:41;32.57;;;17.87;;
2720;SDS011;1368;49.484;11.112;2024-03-06T12:04:07;37.73;;;20.13;;
2720;SDS011;1368;49.484;11.112;2024-03-06T12:06:33;33.50;;;19.80;;
2720;SDS011;1368;49.484;11.112;2024-03-06T12:08:59;36.53;;;19.60;;
2720;SDS011;1368;49.484;11.112;2024-03-06T12:11:25;34.53;;;19.30;;
2720;SDS011;1368;49.484;11.112;2024-03-06T12:13:51;31.93;;;18.60;;
2720;SDS011;1368;49.484;11.112;2024-03-06T12:16:16;32.17;;;18.60;;
2720;SDS011;1368;49.484;11.112;2024-03-06T12:18:42;29.90;;;17.73;;
2720;SDS011;1368;49.484;11.112;2024-03-06T12:21:10;28.60;;;17.47;;
2720;SDS011;1368;49.484;11.112;2024-03-06T12:23:35;30.93;;;19.43;;
2720;SDS011;1368;49.484;11.112;2024-03-06T12:26:04;32.67;;;18.73;;
2720;SDS011;1368;49.484;11.112;2024-03-06T12:28:35;27.70;;;17.30;;
2720;SDS011;1368;49.484;11.112;2024-03-06T12:31:05;25.80;;;16.53;;
2720;SDS011;1368;49.484;11.112;2024-03-06T12:33:32;27.87;;;17.07;;
2720;SDS011;1368;49.484;11.112;2024-03-06T12:36:02;27.10;;;16.83;;
2720;SDS011;1368;49.484;11.112;2024-03-06T12:38:29;22.70;;;16.17;;
2720;SDS011;1368;49.484;11.112;2024-03-06T12:40:55;30.87;;;18.47;;
2720;SDS011;1368;49.484;11.112;2024-03-06T12:43:21;26.33;;;17.07;;
2720;SDS011;1368;49.484;11.112;2024-03-06T12:45:47;23.43;;;17.00;;
2720;SDS011;1368;49.484;11.112;2024-03-06T12:48:12;27.07;;;17.13;;
2720;SDS011;1368;49.484;11.112;2024-03-06T12:50:38;32.00;;;20.17;;
2720;SDS011;1368;49.484;11.112;2024-03-06T12:53:03;28.90;;;18.50;;
2720;SDS011;1368;49.484;11.112;2024-03-06T12:55:32;29.33;;;17.73;;
2720;SDS011;1368;49.484;11.112;2024-03-06T12:57:57;29.00;;;17.67;;
2720;SDS011;1368;49.484;11.112;2024-03-06T13:00:23;31.50;;;19.60;;
2720;SDS011;1368;49.484;11.112;2024-03-06T13:02:49;30.77;;;18.63;;
2720;SDS011;1368;49.484;11.112;2024-03-06T13:05:18;31.10;;;18.10;;
2720;SDS011;1368;49.484;11.112;2024-03-06T13:07:44;26.43;;;18.90;;
2720;SDS011;1368;49.484;11.112;2024-03-06T13:10:10;27.63;;;18.33;;
2720;SDS011;1368;49.484;11.112;2024-03-06T13:12:37;30.40;;;18.30;;
2720;SDS011;1368;49.484;11.112;2024-03-06T13:15:03;31.30;;;19.70;;
2720;SDS011;1368;49.484;11.112;2024-03-06T13:17:29;29.17;;;19.50;;
2720;SDS011;1368;49.484;11.112;2024-03-06T13:19:55;27.53;;;18.17;;
2720;SDS011;1368;49.484;11.112;2024-03-06T13:22:21;28.67;;;18.33;;
2720;SDS011;1368;49.484;11.112;2024-03-06T13:24:47;31.30;;;19.43;;
2720;SDS011;1368;49.484;11.112;2024-03-06T13:27:13;27.53;;;18.10;;
2720;SDS011;1368;49.484;11.112;2024-03-06T13:29:39;29.30;;;19.00;;
2720;SDS011;1368;49.484;11.112;2024-03-06T13:32:07;26.07;;;17.53;;
2720;SDS011;1368;49.484;11.112;2024-03-06T13:34:33;27.53;;;16.80;;
2720;SDS011;1368;49.484;11.112;2024-03-06T13:36:59;24.53;;;16.47;;
2720;SDS011;1368;49.484;11.112;2024-03-06T13:39:25;28.67;;;19.03;;
2720;SDS011;1368;49.484;11.112;2024-03-06T13:41:50;28.50;;;17.83;;
2720;SDS011;1368;49.484;11.112;2024-03-06T13:44:17;28.07;;;17.10;;
2720;SDS011;1368;49.484;11.112;2024-03-06T13:46:43;26.83;;;17.03;;
2720;SDS011;1368;49.484;11.112;2024-03-06T13:49:11;29.30;;;19.33;;
2720;SDS011;1368;49.484;11.112;2024-03-06T13:52:03;31.00;;;19.67;;
2720;SDS011;1368;49.484;11.112;2024-03-06T13:54:30;31.90;;;19.13;;
2720;SDS011;1368;49.484;11.112;2024-03-06T13:56:56;31.50;;;20.37;;
2720;SDS011;1368;49.484;11.112;2024-03-06T13:59:27;30.33;;;20.17;;
2720;SDS011;1368;49.484;11.112;2024-03-06T14:01:53;30.67;;;19.20;;
2720;SDS011;1368;49.484;11.112;2024-03-06T14:04:19;31.43;;;20.10;;
2720;SDS011;1368;49.484;11.112;2024-03-06T14:06:45;30.33;;;20.17;;
2720;SDS011;1368;49.484;11.112;2024-03-06T14:09:10;32.20;;;19.90;;
2720;SDS011;1368;49.484;11.112;2024-03-06T14:11:36;30.60;;;18.93;;
2720;SDS011;1368;49.484;11.112;2024-03-06T14:14:01;30.73;;;18.80;;
2720;SDS011;1368;49.484;11.112;2024-03-06T14:16:27;28.87;;;18.50;;
2720;SDS011;1368;49.484;11.112;2024-03-06T14:18:52;30.70;;;19.40;;
2720;SDS011;1368;49.484;11.112;2024-03-06T14:21:20;31.40;;;20.03;;
2720;SDS011;1368;49.484;11.112;2024-03-06T14:23:45;35.23;;;20.90;;
2720;SDS011;1368;49.484;11.112;2024-03-06T14:26:11;33.27;;;19.50;;
2720;SDS011;1368;49.484;11.112;2024-03-06T14:28:36;31.43;;;20.10;;
2720;SDS011;1368;49.484;11.112;2024-03-06T14:31:03;31.43;;;18.07;;
2720;SDS011;1368;49.484;11.112;2024-03-06T14:33:30;32.47;;;19.90;;